createdAt,value
2018-07-15T00:00:54.995Z,19.50
2018-07-15T00:03:23.347Z,19.50
2018-07-15T00:05:51.661Z,19.50
2018-07-15T00:08:26.941Z,19.50
2018-07-15T00:10:55.283Z,19.40
2018-07-15T00:13:23.567Z,19.20
2018-07-15T00:15:51.924Z,19.00
2018-07-15T00:18:20.814Z,19.00
2018-07-15T00:20:49.214Z,19.00
2018-07-15T00:23:17.475Z,18.90
2018-07-15T00:25:45.752Z,19.00
2018-07-15T00:28:14.014Z,19.00
2018-07-15T00:30:42.324Z,19.00
2018-07-15T00:33:10.588Z,19.00
2018-07-15T00:35:38.852Z,19.00
2018-07-15T00:38:07.211Z,18.90
2018-07-15T00:40:35.930Z,18.80
2018-07-15T00:43:04.194Z,18.80
2018-07-15T00:45:35.655Z,18.90
2018-07-15T00:48:04.115Z,18.80
2018-07-15T00:50:32.561Z,18.70
2018-07-15T00:53:00.980Z,18.70
2018-07-15T00:57:57.237Z,18.80
2018-07-15T01:00:31.039Z,18.80
2018-07-15T01:02:59.324Z,18.80
2018-07-15T01:05:27.554Z,18.60
2018-07-15T01:07:55.883Z,18.50
2018-07-15T01:10:24.216Z,18.40
2018-07-15T01:12:52.723Z,18.50
2018-07-15T01:15:21.002Z,18.50
2018-07-15T01:17:49.318Z,18.50
2018-07-15T01:20:17.600Z,18.40
2018-07-15T01:22:45.893Z,18.40
2018-07-15T01:25:14.205Z,18.40
2018-07-15T01:27:42.482Z,18.40
2018-07-15T01:30:10.759Z,18.40
2018-07-15T01:32:39.102Z,18.50
2018-07-15T01:35:08.030Z,18.50
2018-07-15T01:37:36.394Z,18.50
2018-07-15T01:40:04.761Z,18.40
2018-07-15T01:42:33.431Z,18.30
2018-07-15T01:45:01.659Z,18.30
2018-07-15T01:47:30.071Z,18.30
2018-07-15T01:49:58.310Z,18.30
2018-07-15T01:52:26.978Z,18.30
2018-07-15T01:54:55.245Z,18.30
2018-07-15T01:57:23.528Z,18.40
2018-07-15T01:59:51.883Z,18.40
2018-07-15T02:02:20.587Z,18.30
2018-07-15T02:04:48.933Z,18.20
2018-07-15T02:07:17.243Z,18.10
2018-07-15T02:09:45.524Z,18.20
2018-07-15T02:12:13.799Z,18.30
2018-07-15T02:14:42.163Z,18.40
2018-07-15T02:17:10.497Z,18.40
2018-07-15T02:19:38.750Z,18.40
2018-07-15T02:22:07.038Z,18.40
2018-07-15T02:24:35.412Z,18.40
2018-07-15T02:27:03.759Z,18.40
2018-07-15T02:29:32.398Z,18.40
2018-07-15T02:32:01.011Z,18.30
2018-07-15T02:34:29.292Z,18.20
2018-07-15T02:36:57.580Z,18.20
2018-07-15T02:39:25.856Z,18.20
2018-07-15T02:41:54.138Z,18.20
2018-07-15T02:44:22.420Z,18.20
2018-07-15T02:46:50.659Z,18.20
2018-07-15T02:49:18.970Z,18.10
2018-07-15T02:51:47.289Z,18.10
2018-07-15T02:54:15.532Z,18.10
2018-07-15T02:56:43.815Z,18.10
2018-07-15T02:59:12.091Z,18.10
2018-07-15T03:01:40.372Z,18.10
2018-07-15T03:04:08.828Z,18.20
2018-07-15T03:06:37.156Z,18.20
2018-07-15T03:09:08.095Z,18.10
2018-07-15T03:11:36.514Z,18.10
2018-07-15T03:14:05.803Z,18.00
2018-07-15T03:16:34.348Z,18.00
2018-07-15T03:19:02.895Z,18.00
2018-07-15T03:21:31.249Z,17.90
2018-07-15T03:23:59.642Z,17.90
2018-07-15T03:26:27.936Z,17.80
2018-07-15T03:28:56.196Z,17.70
2018-07-15T03:31:24.471Z,17.70
2018-07-15T03:33:52.792Z,17.80
2018-07-15T03:36:21.041Z,17.70
2018-07-15T03:38:50.091Z,17.80
2018-07-15T03:41:18.467Z,17.90
2018-07-15T03:43:46.727Z,17.90
2018-07-15T03:46:15.258Z,17.90
2018-07-15T03:48:44.152Z,17.70
2018-07-15T03:51:12.519Z,17.60
2018-07-15T03:56:08.839Z,17.60
2018-07-15T03:58:37.115Z,17.60
2018-07-15T04:01:05.499Z,17.70
2018-07-15T04:03:33.816Z,17.90
2018-07-15T04:06:02.087Z,18.00
2018-07-15T04:08:30.422Z,18.00
2018-07-15T04:10:58.646Z,17.90
2018-07-15T04:13:26.953Z,18.00
2018-07-15T04:15:55.841Z,18.00
2018-07-15T04:18:24.089Z,18.00
2018-07-15T04:20:52.393Z,18.00
2018-07-15T04:23:20.748Z,17.80
2018-07-15T04:25:49.096Z,17.70
2018-07-15T04:30:45.547Z,17.80
2018-07-15T04:33:13.751Z,17.70
2018-07-15T04:35:42.030Z,17.70
2018-07-15T04:38:10.532Z,17.70
2018-07-15T04:40:38.776Z,17.70
2018-07-15T04:43:07.052Z,17.70
2018-07-15T04:45:35.339Z,17.70
2018-07-15T04:48:03.610Z,17.80
2018-07-15T04:50:31.893Z,17.90
2018-07-15T04:53:00.162Z,18.00
2018-07-15T04:55:28.437Z,18.20
2018-07-15T04:57:56.991Z,18.30
2018-07-15T05:00:25.273Z,18.40
2018-07-15T05:05:21.516Z,18.70
2018-07-15T05:07:50.204Z,18.80
2018-07-15T05:10:18.506Z,18.90
2018-07-15T05:12:47.670Z,19.20
2018-07-15T05:15:16.006Z,19.30
2018-07-15T05:17:44.300Z,19.50
2018-07-15T05:20:12.631Z,19.70
2018-07-15T05:22:40.894Z,19.90
2018-07-15T05:25:09.232Z,20.10
2018-07-15T05:30:06.019Z,20.40
2018-07-15T05:32:34.399Z,20.60
2018-07-15T05:35:02.765Z,20.90
2018-07-15T05:37:30.955Z,21.10
2018-07-15T05:39:59.218Z,21.40
2018-07-15T05:42:27.473Z,21.80
2018-07-15T05:44:55.775Z,22.10
2018-07-15T05:47:24.049Z,22.40
2018-07-15T05:49:52.327Z,22.80
2018-07-15T05:52:20.550Z,23.10
2018-07-15T05:54:48.798Z,23.40
2018-07-15T05:57:17.362Z,23.70
2018-07-15T05:59:45.696Z,23.90
2018-07-15T06:02:13.994Z,24.10
2018-07-15T06:04:42.266Z,24.40
2018-07-15T06:07:10.543Z,24.70
2018-07-15T06:09:38.800Z,25.10
2018-07-15T06:12:07.074Z,25.30
2018-07-15T06:14:35.426Z,25.50
2018-07-15T06:17:03.752Z,25.70
2018-07-15T06:19:32.061Z,25.90
2018-07-15T06:22:00.342Z,26.10
2018-07-15T06:24:28.612Z,26.30
2018-07-15T06:26:57.536Z,26.50
2018-07-15T06:29:25.750Z,26.90
2018-07-15T06:31:54.064Z,27.00
2018-07-15T06:34:22.744Z,27.40
2018-07-15T06:36:51.225Z,27.80
2018-07-15T06:39:19.504Z,28.10
2018-07-15T06:41:47.736Z,28.30
2018-07-15T06:44:15.931Z,28.50
2018-07-15T06:46:44.207Z,28.70
2018-07-15T06:49:12.500Z,28.90
2018-07-15T06:51:40.738Z,28.90
2018-07-15T06:54:08.935Z,28.90
2018-07-15T06:56:37.214Z,28.90
2018-07-15T06:59:05.469Z,29.10
2018-07-15T07:01:33.808Z,29.30
2018-07-15T07:04:02.050Z,29.40
2018-07-15T07:06:30.324Z,29.50
2018-07-15T07:08:58.578Z,29.50
2018-07-15T07:11:26.951Z,29.90
2018-07-15T07:13:55.240Z,30.20
2018-07-15T07:16:23.519Z,30.20
2018-07-15T07:18:52.701Z,30.60
2018-07-15T07:21:20.988Z,30.80
2018-07-15T07:23:49.306Z,31.00
2018-07-15T07:26:17.558Z,31.30
2018-07-15T07:28:45.847Z,31.40
2018-07-15T07:31:14.136Z,31.30
2018-07-15T07:33:42.454Z,31.60
2018-07-15T07:36:10.742Z,31.50
2018-07-15T07:38:39.162Z,31.50
2018-07-15T07:41:07.449Z,31.40
2018-07-15T07:43:35.685Z,31.30
2018-07-15T07:46:03.977Z,31.30
2018-07-15T07:48:32.266Z,31.60
2018-07-15T07:51:00.531Z,31.90
2018-07-15T07:53:28.946Z,32.00
2018-07-15T07:55:57.184Z,32.10
2018-07-15T07:58:25.462Z,32.20
2018-07-15T08:00:53.736Z,32.10
2018-07-15T08:03:22.048Z,32.20
2018-07-15T08:05:50.324Z,32.10
2018-07-15T08:08:18.552Z,32.20
2018-07-15T08:10:46.831Z,32.50
2018-07-15T08:13:15.115Z,32.80
2018-07-15T08:15:43.370Z,32.70
2018-07-15T08:18:11.639Z,32.70
2018-07-15T08:20:39.955Z,33.00
2018-07-15T08:23:09.142Z,32.80
2018-07-15T08:25:37.466Z,33.10
2018-07-15T08:28:05.773Z,32.90
2018-07-15T08:30:45.909Z,33.30
2018-07-15T08:33:14.223Z,33.50
2018-07-15T08:35:42.489Z,33.20
2018-07-15T08:38:10.930Z,32.90
2018-07-15T08:40:39.190Z,32.50
2018-07-15T08:43:07.439Z,32.10
2018-07-15T08:45:35.898Z,32.50
2018-07-15T08:48:04.174Z,32.00
2018-07-15T08:50:32.441Z,31.60
2018-07-15T08:53:00.714Z,32.10
2018-07-15T08:55:29.018Z,32.40
2018-07-15T08:57:57.295Z,32.80
2018-07-15T09:00:25.570Z,33.20
2018-07-15T09:02:54.936Z,33.10
2018-07-15T09:05:23.250Z,33.60
2018-07-15T09:07:51.722Z,33.90
2018-07-15T09:10:20.093Z,34.20
2018-07-15T09:12:48.478Z,34.10
2018-07-15T09:15:16.678Z,34.10
2018-07-15T09:17:44.950Z,34.30
2018-07-15T09:20:13.211Z,34.20
2018-07-15T09:22:41.527Z,34.00
2018-07-15T09:25:09.763Z,34.10
2018-07-15T09:27:38.159Z,34.20
2018-07-15T09:30:06.407Z,34.10
2018-07-15T09:32:34.725Z,34.40
2018-07-15T09:35:02.961Z,33.90
2018-07-15T09:37:31.283Z,33.00
2018-07-15T09:39:59.539Z,32.80
2018-07-15T09:42:27.801Z,33.20
2018-07-15T09:44:56.143Z,33.40
2018-07-15T09:47:24.472Z,33.40
2018-07-15T09:49:52.847Z,33.20
2018-07-15T09:52:21.123Z,33.40
2018-07-15T09:54:49.393Z,33.60
2018-07-15T09:57:17.646Z,34.10
2018-07-15T09:59:45.930Z,34.20
2018-07-15T10:02:14.198Z,34.10
2018-07-15T10:04:42.517Z,34.50
2018-07-15T10:07:10.841Z,34.50
2018-07-15T10:09:39.202Z,34.70
2018-07-15T10:12:07.455Z,34.10
2018-07-15T10:14:38.111Z,33.10
2018-07-15T10:17:06.438Z,33.20
2018-07-15T10:19:34.708Z,33.00
2018-07-15T10:22:02.938Z,33.40
2018-07-15T10:24:31.241Z,33.90
2018-07-15T10:26:59.463Z,34.10
2018-07-15T10:29:27.720Z,34.30
2018-07-15T10:31:55.976Z,33.90
2018-07-15T10:34:24.316Z,33.80
2018-07-15T10:36:52.633Z,33.80
2018-07-15T10:39:20.871Z,33.70
2018-07-15T10:41:49.161Z,33.50
2018-07-15T10:46:45.905Z,33.30
2018-07-15T10:49:14.132Z,32.30
2018-07-15T10:51:42.366Z,32.30
2018-07-15T10:54:10.675Z,32.90
2018-07-15T10:56:38.936Z,33.40
2018-07-15T10:59:07.256Z,33.60
2018-07-15T11:01:35.850Z,33.80
2018-07-15T11:06:32.211Z,32.90
2018-07-15T11:09:00.438Z,32.20
2018-07-15T11:11:28.822Z,31.10
2018-07-15T11:13:57.051Z,31.10
2018-07-15T11:16:25.319Z,31.30
2018-07-15T11:18:53.504Z,30.50
2018-07-15T11:21:21.869Z,29.90
2018-07-15T11:23:50.066Z,29.90
2018-07-15T11:26:18.447Z,30.20
2018-07-15T11:28:46.668Z,30.10
2018-07-15T11:31:14.984Z,29.90
2018-07-15T11:33:43.193Z,30.20
2018-07-15T11:36:11.421Z,30.40
2018-07-15T11:38:39.685Z,30.40
2018-07-15T11:41:07.979Z,30.50
2018-07-15T11:43:36.198Z,30.30
2018-07-15T11:46:04.430Z,29.90
2018-07-15T11:48:32.726Z,29.80
2018-07-15T11:51:01.041Z,29.70
2018-07-15T11:53:29.262Z,29.70
2018-07-15T11:55:57.537Z,29.30
2018-07-15T11:58:25.881Z,28.80
2018-07-15T12:00:54.090Z,28.60
2018-07-15T12:03:22.791Z,28.40
2018-07-15T12:05:51.271Z,28.50
2018-07-15T12:08:19.593Z,28.70
2018-07-15T12:10:47.903Z,28.80
2018-07-15T12:13:16.205Z,28.50
2018-07-15T12:15:44.490Z,28.00
2018-07-15T12:18:12.806Z,27.40
2018-07-15T12:20:41.084Z,26.90
2018-07-15T12:23:09.420Z,26.90
2018-07-15T12:25:37.742Z,27.00
2018-07-15T12:28:05.979Z,27.00
2018-07-15T12:30:34.193Z,27.10
2018-07-15T12:33:02.460Z,27.20
2018-07-15T12:35:31.194Z,27.30
2018-07-15T12:37:59.631Z,27.40
2018-07-15T12:40:28.270Z,27.60
2018-07-15T12:42:56.540Z,27.70
2018-07-15T12:45:24.823Z,27.80
2018-07-15T12:47:53.089Z,27.90
2018-07-15T12:50:21.430Z,28.10
2018-07-15T12:52:49.695Z,28.00
2018-07-15T12:55:18.022Z,27.60
2018-07-15T12:57:46.313Z,27.30
2018-07-15T13:00:14.469Z,27.20
2018-07-15T13:02:42.739Z,26.90
2018-07-15T13:05:10.975Z,26.90
2018-07-15T13:07:39.199Z,27.00
2018-07-15T13:10:07.460Z,26.70
2018-07-15T13:12:36.016Z,26.20
2018-07-15T13:15:04.359Z,25.90
2018-07-15T13:17:32.606Z,25.80
2018-07-15T13:20:00.992Z,25.80
2018-07-15T13:22:29.257Z,25.90
2018-07-15T13:24:57.550Z,25.60
2018-07-15T13:27:25.843Z,25.70
2018-07-15T13:29:54.064Z,25.60
2018-07-15T13:32:22.263Z,25.50
2018-07-15T13:34:50.643Z,25.40
2018-07-15T13:37:18.918Z,25.00
2018-07-15T13:39:47.194Z,24.60
2018-07-15T13:42:16.089Z,24.10
2018-07-15T13:44:44.364Z,23.60
2018-07-15T13:47:12.618Z,22.70
2018-07-15T13:49:40.928Z,21.70
2018-07-15T13:52:09.221Z,21.30
2018-07-15T13:54:37.498Z,21.20
2018-07-15T13:57:06.382Z,21.20
2018-07-15T13:59:35.430Z,21.20
2018-07-15T14:02:04.315Z,21.20
2018-07-15T14:04:32.635Z,21.20
2018-07-15T14:07:01.152Z,21.30
2018-07-15T14:09:29.699Z,21.40
2018-07-15T14:11:58.091Z,21.60
2018-07-15T14:16:56.164Z,21.60
2018-07-15T14:19:24.516Z,21.30
2018-07-15T14:21:53.034Z,21.20
2018-07-15T14:24:21.431Z,21.10
2018-07-15T14:26:50.071Z,21.00
2018-07-15T14:29:18.404Z,21.00
2018-07-15T14:31:46.759Z,21.00
2018-07-15T14:34:15.155Z,20.80
2018-07-15T14:36:43.465Z,20.60
2018-07-15T14:39:11.740Z,20.60
2018-07-15T14:41:40.796Z,20.80
2018-07-15T14:44:09.262Z,21.00
2018-07-15T14:46:37.784Z,21.00
2018-07-15T14:49:06.034Z,21.20
2018-07-15T14:51:34.278Z,21.00
2018-07-15T14:54:02.567Z,20.80
2018-07-15T14:56:30.825Z,20.80
2018-07-15T14:58:59.114Z,20.70
2018-07-15T15:01:27.398Z,20.70
2018-07-15T15:03:55.666Z,20.80
2018-07-15T15:06:23.939Z,20.90
2018-07-15T15:08:52.228Z,21.00
2018-07-15T15:11:20.490Z,21.10
2018-07-15T15:13:48.770Z,21.20
2018-07-15T15:16:16.973Z,21.30
2018-07-15T15:18:45.259Z,21.60
2018-07-15T15:21:13.503Z,21.90
2018-07-15T15:23:41.766Z,22.10
2018-07-15T15:26:10.130Z,22.40
2018-07-15T15:28:38.976Z,22.30
2018-07-15T15:31:07.316Z,22.10
2018-07-15T15:33:35.644Z,22.40
2018-07-15T15:36:04.015Z,22.50
2018-07-15T15:38:33.493Z,22.80
2018-07-15T15:41:02.843Z,22.60
2018-07-15T15:43:31.212Z,22.60
2018-07-15T15:46:00.140Z,22.40
2018-07-15T15:48:28.562Z,22.40
2018-07-15T15:50:56.832Z,22.70
2018-07-15T15:53:25.081Z,22.80
2018-07-15T15:55:53.535Z,22.70
2018-07-15T15:58:21.893Z,22.80
2018-07-15T16:00:50.328Z,22.90
2018-07-15T16:03:19.922Z,23.20
2018-07-15T16:05:49.050Z,23.30
2018-07-15T16:08:17.393Z,23.20
2018-07-15T16:10:45.874Z,23.20
2018-07-15T16:13:14.161Z,23.50
2018-07-15T16:15:42.542Z,23.60
2018-07-15T16:18:10.837Z,23.80
2018-07-15T16:20:39.146Z,23.90
2018-07-15T16:23:08.001Z,23.80
2018-07-15T16:25:36.231Z,24.00
2018-07-15T16:28:04.973Z,24.10
2018-07-15T16:30:33.212Z,24.10
2018-07-15T16:33:01.492Z,24.10
2018-07-15T16:35:29.793Z,24.10
2018-07-15T16:37:58.142Z,24.00
2018-07-15T16:40:26.443Z,24.10
2018-07-15T16:42:54.738Z,24.10
2018-07-15T16:45:23.044Z,24.10
2018-07-15T16:47:51.307Z,24.10
2018-07-15T16:50:19.583Z,24.00
2018-07-15T16:52:47.932Z,24.10
2018-07-15T16:55:16.317Z,24.00
2018-07-15T16:57:44.752Z,23.90
2018-07-15T17:00:13.155Z,23.90
2018-07-15T17:02:41.587Z,23.70
2018-07-15T17:05:09.875Z,23.70
2018-07-15T17:07:38.203Z,23.70
2018-07-15T17:10:06.571Z,23.60
2018-07-15T17:12:34.851Z,23.50
2018-07-15T17:15:03.206Z,23.50
2018-07-15T17:17:31.565Z,23.40
2018-07-15T17:19:59.939Z,23.30
2018-07-15T17:22:28.219Z,23.30
2018-07-15T17:24:56.473Z,23.20
2018-07-15T17:27:24.820Z,23.20
2018-07-15T17:29:53.244Z,23.30
2018-07-15T17:34:49.543Z,23.40
2018-07-15T17:37:17.880Z,23.40
2018-07-15T17:39:53.291Z,23.40
2018-07-15T17:42:21.541Z,23.40
2018-07-15T17:44:50.181Z,23.40
2018-07-15T17:47:18.446Z,23.40
2018-07-15T17:49:46.737Z,23.30
2018-07-15T17:52:14.954Z,23.20
2018-07-15T17:54:43.220Z,23.20
2018-07-15T17:57:11.561Z,23.20
2018-07-15T17:59:39.887Z,23.20
2018-07-15T18:02:08.223Z,23.20
2018-07-15T18:04:36.592Z,23.20
2018-07-15T18:07:04.871Z,23.20
2018-07-15T18:09:33.226Z,23.20
2018-07-15T18:12:01.556Z,23.10
2018-07-15T18:14:29.921Z,23.00
2018-07-15T18:16:58.193Z,23.00
2018-07-15T18:19:27.348Z,23.00
2018-07-15T18:21:55.692Z,22.90
2018-07-15T18:24:23.940Z,23.00
2018-07-15T18:26:52.292Z,23.00
2018-07-15T18:29:20.583Z,23.00
2018-07-15T18:31:48.866Z,22.90
2018-07-15T18:34:17.173Z,22.90
2018-07-15T18:36:45.800Z,22.80
2018-07-15T18:39:14.105Z,22.80
2018-07-15T18:41:42.383Z,22.80
2018-07-15T18:44:10.746Z,22.80
2018-07-15T18:46:39.154Z,22.70
2018-07-15T18:49:07.501Z,22.60
2018-07-15T18:51:37.375Z,22.50
2018-07-15T18:54:05.861Z,22.40
2018-07-15T18:56:34.190Z,22.30
2018-07-15T18:59:02.545Z,22.30
2018-07-15T19:01:30.881Z,22.30
2018-07-15T19:03:59.172Z,22.30
2018-07-15T19:06:27.486Z,22.30
2018-07-15T19:08:55.768Z,22.30
2018-07-15T19:11:24.034Z,22.20
2018-07-15T19:13:52.357Z,22.30
2018-07-15T19:16:20.642Z,22.30
2018-07-15T19:18:49.283Z,22.20
2018-07-15T19:21:17.567Z,22.30
2018-07-15T19:23:45.879Z,22.30
2018-07-15T19:26:14.264Z,22.40
2018-07-15T19:28:42.594Z,22.40
2018-07-15T19:31:11.054Z,22.40
2018-07-15T19:33:39.563Z,22.30
2018-07-15T19:36:08.288Z,22.10
2018-07-15T19:38:36.719Z,22.00
2018-07-15T19:41:05.078Z,22.00
2018-07-15T19:43:33.482Z,21.90
2018-07-15T19:46:01.740Z,21.90
2018-07-15T19:48:30.031Z,21.80
2018-07-15T19:50:59.235Z,21.80
2018-07-15T19:53:27.518Z,21.70
2018-07-15T19:55:55.826Z,21.70
2018-07-15T19:58:25.168Z,21.60
2018-07-15T20:00:53.630Z,21.60
2018-07-15T20:03:21.952Z,21.60
2018-07-15T20:08:18.293Z,21.50
2018-07-15T20:10:46.825Z,21.40
2018-07-15T20:13:15.167Z,21.40
2018-07-15T20:15:43.410Z,21.40
2018-07-15T20:18:13.819Z,21.40
2018-07-15T20:20:42.224Z,21.40
2018-07-15T20:23:10.392Z,21.40
2018-07-15T20:25:39.498Z,21.40
2018-07-15T20:28:08.696Z,21.40
2018-07-15T20:30:36.977Z,21.40
2018-07-15T20:33:05.391Z,21.40
2018-07-15T20:38:02.203Z,21.10
2018-07-15T20:40:31.397Z,21.10
2018-07-15T20:43:00.153Z,21.00
2018-07-15T20:45:28.535Z,21.00
2018-07-15T20:47:56.939Z,20.90
2018-07-15T20:50:25.324Z,20.80
2018-07-15T20:52:54.016Z,20.80
2018-07-15T20:55:23.522Z,20.70
2018-07-15T20:57:52.002Z,20.60
2018-07-15T21:02:49.555Z,20.50
2018-07-15T21:05:17.812Z,20.40
2018-07-15T21:07:46.135Z,20.30
2018-07-15T21:10:14.474Z,20.20
2018-07-15T21:12:43.579Z,20.20
2018-07-15T21:15:11.871Z,20.20
2018-07-15T21:17:40.846Z,20.20
2018-07-15T21:20:09.739Z,20.30
2018-07-15T21:22:37.982Z,20.40
2018-07-15T21:25:06.863Z,20.40
2018-07-15T21:27:35.190Z,20.40
2018-07-15T21:30:03.520Z,20.40
2018-07-15T21:32:32.492Z,20.40
2018-07-15T21:35:01.195Z,20.40
2018-07-15T21:37:29.576Z,20.50
2018-07-15T21:39:57.902Z,20.50
2018-07-15T21:42:26.182Z,20.50
2018-07-15T21:44:55.493Z,20.50
2018-07-15T21:47:23.789Z,20.50
2018-07-15T21:49:52.126Z,20.50
2018-07-15T21:52:20.688Z,20.50
2018-07-15T21:54:49.503Z,20.40
2018-07-15T21:59:46.785Z,20.20
2018-07-15T22:02:15.355Z,20.20
2018-07-15T22:04:44.542Z,20.30
2018-07-15T22:07:24.715Z,20.30
2018-07-15T22:11:06.207Z,20.30
2018-07-15T22:13:34.999Z,20.30
2018-07-15T22:16:03.327Z,20.30
2018-07-15T22:18:31.804Z,20.30
2018-07-15T22:23:28.158Z,20.20
2018-07-15T22:25:56.469Z,20.10
2018-07-15T22:28:24.898Z,20.00
2018-07-15T22:30:53.204Z,20.00
2018-07-15T22:33:21.504Z,19.90
2018-07-15T22:35:49.788Z,19.80
2018-07-15T22:38:18.066Z,19.80
2018-07-15T22:40:46.331Z,19.80
2018-07-15T22:43:14.713Z,19.70
2018-07-15T22:45:42.976Z,19.70
2018-07-15T22:48:11.346Z,19.70
2018-07-15T22:50:39.645Z,19.50
2018-07-15T22:53:08.187Z,19.40
2018-07-15T22:58:04.671Z,19.20
2018-07-15T23:00:33.038Z,19.10
2018-07-15T23:03:01.386Z,19.10
2018-07-15T23:05:43.857Z,19.10
2018-07-15T23:08:12.625Z,18.90
2018-07-15T23:10:40.980Z,18.90
2018-07-15T23:13:10.598Z,18.90
2018-07-15T23:15:39.382Z,18.80
2018-07-15T23:18:07.748Z,18.80
2018-07-15T23:20:37.066Z,18.80
2018-07-15T23:23:10.089Z,18.80
2018-07-15T23:25:38.635Z,18.80
2018-07-15T23:28:08.112Z,18.70
2018-07-15T23:30:37.858Z,18.60
2018-07-15T23:33:06.960Z,18.70
2018-07-15T23:35:35.214Z,18.80
2018-07-15T23:38:03.623Z,18.80
2018-07-15T23:40:32.219Z,18.90
2018-07-15T23:43:01.007Z,18.90
2018-07-15T23:45:30.384Z,18.90
2018-07-15T23:47:58.766Z,18.90
2018-07-15T23:50:27.142Z,18.80
2018-07-15T23:52:55.547Z,18.70
2018-07-15T23:55:24.107Z,18.70
2018-07-15T23:57:53.286Z,18.70
